sensor_id;sensor_type;location;lat;lon;timestamp;temperature;humidity
72128;DHT22;60000;51.030;7.024;2022-11-15T00:01:26;10.44;88.20
72128;DHT22;60000;51.030;7.024;2022-11-15T00:03:51;10.47;88.39
72128;DHT22;60000;51.030;7.024;2022-11-15T00:06:17;10.54;88.16
72128;DHT22;60000;51.030;7.024;2022-11-15T00:08:43;10.55;88.17
72128;DHT22;60000;51.030;7.024;2022-11-15T00:11:11;10.55;88.19
72128;DHT22;60000;51.030;7.024;2022-11-15T00:13:37;10.58;88.19
72128;DHT22;60000;51.030;7.024;2022-11-15T00:16:02;10.61;88.23
72128;DHT22;60000;51.030;7.024;2022-11-15T00:18:29;10.68;88.21
72128;DHT22;60000;51.030;7.024;2022-11-15T00:20:55;10.76;88.05
72128;DHT22;60000;51.030;7.024;2022-11-15T00:23:21;10.82;87.81
72128;DHT22;60000;51.030;7.024;2022-11-15T00:25:46;10.89;87.56
72128;DHT22;60000;51.030;7.024;2022-11-15T00:28:12;10.95;87.39
72128;DHT22;60000;51.030;7.024;2022-11-15T00:30:37;10.99;87.28
72128;DHT22;60000;51.030;7.024;2022-11-15T00:33:04;11.06;87.27
72128;DHT22;60000;51.030;7.024;2022-11-15T00:35:32;11.10;86.93
72128;DHT22;60000;51.030;7.024;2022-11-15T00:37:58;11.12;86.93
72128;DHT22;60000;51.030;7.024;2022-11-15T00:40:24;11.20;86.80
72128;DHT22;60000;51.030;7.024;2022-11-15T00:42:49;11.27;86.61
72128;DHT22;60000;51.030;7.024;2022-11-15T00:45:14;11.33;86.29
72128;DHT22;60000;51.030;7.024;2022-11-15T00:47:40;11.36;86.24
72128;DHT22;60000;51.030;7.024;2022-11-15T00:50:05;11.43;86.12
72128;DHT22;60000;51.030;7.024;2022-11-15T00:52:31;11.47;86.08
72128;DHT22;60000;51.030;7.024;2022-11-15T00:54:56;11.47;85.90
72128;DHT22;60000;51.030;7.024;2022-11-15T00:57:21;11.50;86.00
72128;DHT22;60000;51.030;7.024;2022-11-15T00:59:47;11.53;85.83
72128;DHT22;60000;51.030;7.024;2022-11-15T01:02:12;11.54;85.88
72128;DHT22;60000;51.030;7.024;2022-11-15T01:04:37;11.56;85.84
72128;DHT22;60000;51.030;7.024;2022-11-15T01:07:02;11.57;85.76
72128;DHT22;60000;51.030;7.024;2022-11-15T01:09:28;11.57;85.78
72128;DHT22;60000;51.030;7.024;2022-11-15T01:11:53;11.60;85.77
72128;DHT22;60000;51.030;7.024;2022-11-15T01:14:18;11.60;85.69
72128;DHT22;60000;51.030;7.024;2022-11-15T01:16:44;11.60;85.77
72128;DHT22;60000;51.030;7.024;2022-11-15T01:19:09;11.64;85.73
72128;DHT22;60000;51.030;7.024;2022-11-15T01:21:34;11.61;85.69
72128;DHT22;60000;51.030;7.024;2022-11-15T01:24:00;11.66;85.55
72128;DHT22;60000;51.030;7.024;2022-11-15T01:26:26;11.60;85.67
72128;DHT22;60000;51.030;7.024;2022-11-15T01:28:51;11.61;85.85
72128;DHT22;60000;51.030;7.024;2022-11-15T01:31:19;11.58;85.83
72128;DHT22;60000;51.030;7.024;2022-11-15T01:33:45;11.58;85.94
72128;DHT22;60000;51.030;7.024;2022-11-15T01:36:14;11.61;85.95
72128;DHT22;60000;51.030;7.024;2022-11-15T01:38:40;11.61;85.89
72128;DHT22;60000;51.030;7.024;2022-11-15T01:41:05;11.64;85.98
72128;DHT22;60000;51.030;7.024;2022-11-15T01:43:35;11.64;86.08
72128;DHT22;60000;51.030;7.024;2022-11-15T01:46:18;11.66;85.87
72128;DHT22;60000;51.030;7.024;2022-11-15T01:48:45;11.67;85.98
72128;DHT22;60000;51.030;7.024;2022-11-15T01:51:12;11.75;85.85
72128;DHT22;60000;51.030;7.024;2022-11-15T01:53:40;11.74;85.80
72128;DHT22;60000;51.030;7.024;2022-11-15T01:56:10;11.81;85.69
72128;DHT22;60000;51.030;7.024;2022-11-15T01:58:37;11.79;85.67
72128;DHT22;60000;51.030;7.024;2022-11-15T02:01:02;11.79;85.62
72128;DHT22;60000;51.030;7.024;2022-11-15T02:03:59;11.78;85.81
72128;DHT22;60000;51.030;7.024;2022-11-15T02:06:23;11.79;85.85
72128;DHT22;60000;51.030;7.024;2022-11-15T02:08:50;11.79;85.86
72128;DHT22;60000;51.030;7.024;2022-11-15T02:11:15;11.84;85.82
72128;DHT22;60000;51.030;7.024;2022-11-15T02:13:41;11.88;85.58
72128;DHT22;60000;51.030;7.024;2022-11-15T02:27:38;11.84;85.72
72128;DHT22;60000;51.030;7.024;2022-11-15T02:30:18;11.81;85.80
72128;DHT22;60000;51.030;7.024;2022-11-15T02:35:41;11.81;86.01
72128;DHT22;60000;51.030;7.024;2022-11-15T02:38:22;11.81;86.08
72128;DHT22;60000;51.030;7.024;2022-11-15T02:41:13;11.79;86.09
72128;DHT22;60000;51.030;7.024;2022-11-15T02:43:46;11.79;86.21
72128;DHT22;60000;51.030;7.024;2022-11-15T02:47:13;11.81;86.14
72128;DHT22;60000;51.030;7.024;2022-11-15T02:49:39;11.77;86.23
72128;DHT22;60000;51.030;7.024;2022-11-15T02:52:04;11.77;86.31
72128;DHT22;60000;51.030;7.024;2022-11-15T02:54:32;11.78;86.43
72128;DHT22;60000;51.030;7.024;2022-11-15T02:57:06;11.77;86.47
72128;DHT22;60000;51.030;7.024;2022-11-15T03:02:32;11.78;86.53
72128;DHT22;60000;51.030;7.024;2022-11-15T03:05:12;11.78;86.51
72128;DHT22;60000;51.030;7.024;2022-11-15T03:10:45;11.82;86.50
72128;DHT22;60000;51.030;7.024;2022-11-15T03:13:41;11.84;86.47
72128;DHT22;60000;51.030;7.024;2022-11-15T03:18:47;11.87;86.49
72128;DHT22;60000;51.030;7.024;2022-11-15T03:21:15;11.91;86.45
72128;DHT22;60000;51.030;7.024;2022-11-15T03:23:44;11.94;86.36
72128;DHT22;60000;51.030;7.024;2022-11-15T03:26:11;11.94;86.26
72128;DHT22;60000;51.030;7.024;2022-11-15T03:28:52;11.91;86.18
72128;DHT22;60000;51.030;7.024;2022-11-15T03:31:19;11.89;86.27
72128;DHT22;60000;51.030;7.024;2022-11-15T03:34:07;11.91;86.48
72128;DHT22;60000;51.030;7.024;2022-11-15T03:36:35;11.94;86.34
72128;DHT22;60000;51.030;7.024;2022-11-15T03:39:05;11.95;86.38
72128;DHT22;60000;51.030;7.024;2022-11-15T03:41:43;11.94;86.48
72128;DHT22;60000;51.030;7.024;2022-11-15T03:47:00;11.98;86.32
72128;DHT22;60000;51.030;7.024;2022-11-15T03:49:31;12.01;86.39
72128;DHT22;60000;51.030;7.024;2022-11-15T03:51:58;12.02;86.09
72128;DHT22;60000;51.030;7.024;2022-11-15T03:54:24;12.01;86.16
72128;DHT22;60000;51.030;7.024;2022-11-15T03:56:49;11.97;86.01
72128;DHT22;60000;51.030;7.024;2022-11-15T03:59:14;12.01;86.17
72128;DHT22;60000;51.030;7.024;2022-11-15T04:01:40;12.05;86.02
72128;DHT22;60000;51.030;7.024;2022-11-15T04:04:05;12.05;85.94
72128;DHT22;60000;51.030;7.024;2022-11-15T04:06:30;12.04;85.90
72128;DHT22;60000;51.030;7.024;2022-11-15T04:08:56;12.04;86.05
72128;DHT22;60000;51.030;7.024;2022-11-15T04:11:21;12.09;85.96
72128;DHT22;60000;51.030;7.024;2022-11-15T04:13:46;12.09;85.63
72128;DHT22;60000;51.030;7.024;2022-11-15T04:16:11;12.08;85.76
72128;DHT22;60000;51.030;7.024;2022-11-15T04:18:37;12.11;85.69
72128;DHT22;60000;51.030;7.024;2022-11-15T04:21:02;12.18;85.46
72128;DHT22;60000;51.030;7.024;2022-11-15T04:23:46;12.19;85.38
72128;DHT22;60000;51.030;7.024;2022-11-15T04:26:32;12.18;85.32
72128;DHT22;60000;51.030;7.024;2022-11-15T04:28:57;12.24;85.29
72128;DHT22;60000;51.030;7.024;2022-11-15T04:31:41;12.22;85.25
72128;DHT22;60000;51.030;7.024;2022-11-15T04:34:06;12.29;85.04
72128;DHT22;60000;51.030;7.024;2022-11-15T04:36:31;12.32;85.03
72128;DHT22;60000;51.030;7.024;2022-11-15T04:39:15;12.33;84.70
72128;DHT22;60000;51.030;7.024;2022-11-15T04:41:40;12.30;84.79
72128;DHT22;60000;51.030;7.024;2022-11-15T04:44:06;12.35;84.81
72128;DHT22;60000;51.030;7.024;2022-11-15T04:46:32;12.36;84.75
72128;DHT22;60000;51.030;7.024;2022-11-15T04:48:57;12.37;84.64
72128;DHT22;60000;51.030;7.024;2022-11-15T04:51:22;12.42;84.61
72128;DHT22;60000;51.030;7.024;2022-11-15T04:53:48;12.40;84.64
72128;DHT22;60000;51.030;7.024;2022-11-15T04:56:13;12.39;84.67
72128;DHT22;60000;51.030;7.024;2022-11-15T04:58:38;12.42;84.69
72128;DHT22;60000;51.030;7.024;2022-11-15T05:01:11;12.37;84.60
72128;DHT22;60000;51.030;7.024;2022-11-15T05:03:39;12.37;84.68
72128;DHT22;60000;51.030;7.024;2022-11-15T05:06:22;12.42;84.51
72128;DHT22;60000;51.030;7.024;2022-11-15T05:08:48;12.47;84.46
72128;DHT22;60000;51.030;7.024;2022-11-15T05:11:13;12.47;84.44
72128;DHT22;60000;51.030;7.024;2022-11-15T05:13:38;12.52;84.38
72128;DHT22;60000;51.030;7.024;2022-11-15T05:16:04;12.50;84.17
72128;DHT22;60000;51.030;7.024;2022-11-15T05:18:29;12.50;84.31
72128;DHT22;60000;51.030;7.024;2022-11-15T05:20:55;12.43;84.43
72128;DHT22;60000;51.030;7.024;2022-11-15T05:23:20;12.42;84.58
72128;DHT22;60000;51.030;7.024;2022-11-15T05:25:45;12.40;84.67
72128;DHT22;60000;51.030;7.024;2022-11-15T05:28:10;12.50;84.40
72128;DHT22;60000;51.030;7.024;2022-11-15T05:30:36;12.45;84.64
72128;DHT22;60000;51.030;7.024;2022-11-15T05:33:01;12.43;84.72
72128;DHT22;60000;51.030;7.024;2022-11-15T05:35:34;12.42;84.73
72128;DHT22;60000;51.030;7.024;2022-11-15T05:38:01;12.37;84.64
72128;DHT22;60000;51.030;7.024;2022-11-15T05:40:27;12.36;84.75
72128;DHT22;60000;51.030;7.024;2022-11-15T05:42:53;12.37;84.80
72128;DHT22;60000;51.030;7.024;2022-11-15T05:45:19;12.32;84.88
72128;DHT22;60000;51.030;7.024;2022-11-15T05:47:45;12.35;85.02
72128;DHT22;60000;51.030;7.024;2022-11-15T05:50:12;12.33;84.99
72128;DHT22;60000;51.030;7.024;2022-11-15T05:52:40;12.33;85.06
72128;DHT22;60000;51.030;7.024;2022-11-15T05:55:06;12.32;85.04
72128;DHT22;60000;51.030;7.024;2022-11-15T05:57:32;12.32;84.84
72128;DHT22;60000;51.030;7.024;2022-11-15T05:59:57;12.28;85.10
72128;DHT22;60000;51.030;7.024;2022-11-15T06:02:23;12.22;85.26
72128;DHT22;60000;51.030;7.024;2022-11-15T06:04:48;12.16;85.28
72128;DHT22;60000;51.030;7.024;2022-11-15T06:07:13;12.12;85.31
72128;DHT22;60000;51.030;7.024;2022-11-15T06:09:39;12.15;85.39
72128;DHT22;60000;51.030;7.024;2022-11-15T06:12:04;12.05;85.26
72128;DHT22;60000;51.030;7.024;2022-11-15T06:14:29;11.99;85.44
72128;DHT22;60000;51.030;7.024;2022-11-15T06:16:55;12.01;85.44
72128;DHT22;60000;51.030;7.024;2022-11-15T06:19:20;11.95;85.52
72128;DHT22;60000;51.030;7.024;2022-11-15T06:21:45;11.95;85.37
72128;DHT22;60000;51.030;7.024;2022-11-15T06:24:11;11.88;85.43
72128;DHT22;60000;51.030;7.024;2022-11-15T06:26:36;11.84;85.62
72128;DHT22;60000;51.030;7.024;2022-11-15T06:29:03;11.79;85.55
72128;DHT22;60000;51.030;7.024;2022-11-15T06:31:29;11.74;85.74
72128;DHT22;60000;51.030;7.024;2022-11-15T06:33:55;11.73;85.72
72128;DHT22;60000;51.030;7.024;2022-11-15T06:36:20;11.64;85.90
72128;DHT22;60000;51.030;7.024;2022-11-15T06:38:45;11.67;85.91
72128;DHT22;60000;51.030;7.024;2022-11-15T06:41:12;11.61;85.94
72128;DHT22;60000;51.030;7.024;2022-11-15T06:43:38;11.57;85.86
72128;DHT22;60000;51.030;7.024;2022-11-15T06:46:04;11.50;85.99
72128;DHT22;60000;51.030;7.024;2022-11-15T06:48:31;11.47;86.15
72128;DHT22;60000;51.030;7.024;2022-11-15T06:50:59;11.44;86.25
72128;DHT22;60000;51.030;7.024;2022-11-15T06:53:26;11.43;86.40
72128;DHT22;60000;51.030;7.024;2022-11-15T06:55:51;11.40;86.87
72128;DHT22;60000;51.030;7.024;2022-11-15T06:58:17;11.37;86.67
72128;DHT22;60000;51.030;7.024;2022-11-15T07:00:43;11.33;86.79
72128;DHT22;60000;51.030;7.024;2022-11-15T07:03:09;11.30;87.01
72128;DHT22;60000;51.030;7.024;2022-11-15T07:05:35;11.27;87.18
72128;DHT22;60000;51.030;7.024;2022-11-15T07:08:01;11.24;87.30
72128;DHT22;60000;51.030;7.024;2022-11-15T07:10:27;11.23;87.41
72128;DHT22;60000;51.030;7.024;2022-11-15T07:12:53;11.22;87.51
72128;DHT22;60000;51.030;7.024;2022-11-15T07:15:19;11.16;87.35
72128;DHT22;60000;51.030;7.024;2022-11-15T07:17:45;11.17;87.50
72128;DHT22;60000;51.030;7.024;2022-11-15T07:20:11;11.16;87.43
72128;DHT22;60000;51.030;7.024;2022-11-15T07:22:36;11.17;87.17
72128;DHT22;60000;51.030;7.024;2022-11-15T07:25:02;11.10;87.22
72128;DHT22;60000;51.030;7.024;2022-11-15T07:27:27;11.05;87.20
72128;DHT22;60000;51.030;7.024;2022-11-15T07:29:52;11.10;87.22
72128;DHT22;60000;51.030;7.024;2022-11-15T07:32:18;11.13;87.12
72128;DHT22;60000;51.030;7.024;2022-11-15T07:34:43;11.10;87.01
72128;DHT22;60000;51.030;7.024;2022-11-15T07:37:10;11.09;86.95
72128;DHT22;60000;51.030;7.024;2022-11-15T07:39:35;11.08;86.91
72128;DHT22;60000;51.030;7.024;2022-11-15T07:42:01;11.10;86.79
72128;DHT22;60000;51.030;7.024;2022-11-15T07:44:45;11.12;86.43
72128;DHT22;60000;51.030;7.024;2022-11-15T07:47:10;11.09;86.39
72128;DHT22;60000;51.030;7.024;2022-11-15T07:49:35;11.12;86.44
72128;DHT22;60000;51.030;7.024;2022-11-15T07:52:00;11.09;86.35
72128;DHT22;60000;51.030;7.024;2022-11-15T07:54:26;11.10;86.05
72128;DHT22;60000;51.030;7.024;2022-11-15T07:56:51;11.16;85.71
72128;DHT22;60000;51.030;7.024;2022-11-15T07:59:16;11.17;85.63
72128;DHT22;60000;51.030;7.024;2022-11-15T08:01:42;11.16;85.55
72128;DHT22;60000;51.030;7.024;2022-11-15T08:04:07;11.17;85.53
72128;DHT22;60000;51.030;7.024;2022-11-15T08:06:32;11.17;85.44
72128;DHT22;60000;51.030;7.024;2022-11-15T08:08:57;11.22;85.29
72128;DHT22;60000;51.030;7.024;2022-11-15T08:11:23;11.19;85.17
72128;DHT22;60000;51.030;7.024;2022-11-15T08:13:48;11.23;84.89
72128;DHT22;60000;51.030;7.024;2022-11-15T08:16:13;11.22;84.85
72128;DHT22;60000;51.030;7.024;2022-11-15T08:18:39;11.23;84.81
72128;DHT22;60000;51.030;7.024;2022-11-15T08:21:04;11.29;84.62
72128;DHT22;60000;51.030;7.024;2022-11-15T08:23:30;11.30;84.41
72128;DHT22;60000;51.030;7.024;2022-11-15T08:26:00;11.33;84.33
72128;DHT22;60000;51.030;7.024;2022-11-15T08:28:26;11.37;84.21
72128;DHT22;60000;51.030;7.024;2022-11-15T08:30:51;11.40;83.98
72128;DHT22;60000;51.030;7.024;2022-11-15T08:33:17;11.41;83.85
72128;DHT22;60000;51.030;7.024;2022-11-15T08:35:43;11.44;83.67
72128;DHT22;60000;51.030;7.024;2022-11-15T08:38:09;11.48;83.42
72128;DHT22;60000;51.030;7.024;2022-11-15T08:40:35;11.54;83.27
72128;DHT22;60000;51.030;7.024;2022-11-15T08:43:00;11.58;82.80
72128;DHT22;60000;51.030;7.024;2022-11-15T08:45:28;11.64;82.72
72128;DHT22;60000;51.030;7.024;2022-11-15T08:47:53;11.67;82.35
72128;DHT22;60000;51.030;7.024;2022-11-15T08:50:19;11.71;82.07
72128;DHT22;60000;51.030;7.024;2022-11-15T08:52:44;11.78;82.18
72128;DHT22;60000;51.030;7.024;2022-11-15T08:55:09;11.89;81.47
72128;DHT22;60000;51.030;7.024;2022-11-15T08:57:35;11.97;81.40
72128;DHT22;60000;51.030;7.024;2022-11-15T09:00:00;12.06;80.93
72128;DHT22;60000;51.030;7.024;2022-11-15T09:02:25;12.11;80.41
72128;DHT22;60000;51.030;7.024;2022-11-15T09:04:51;12.18;80.33
72128;DHT22;60000;51.030;7.024;2022-11-15T09:07:16;12.25;80.10
72128;DHT22;60000;51.030;7.024;2022-11-15T09:09:41;12.35;79.56
72128;DHT22;60000;51.030;7.024;2022-11-15T09:12:07;12.43;79.13
72128;DHT22;60000;51.030;7.024;2022-11-15T09:14:32;12.50;78.72
72128;DHT22;60000;51.030;7.024;2022-11-15T09:16:58;12.63;78.72
72128;DHT22;60000;51.030;7.024;2022-11-15T09:19:23;12.66;77.97
72128;DHT22;60000;51.030;7.024;2022-11-15T09:21:49;12.72;77.16
72128;DHT22;60000;51.030;7.024;2022-11-15T09:24:14;12.86;78.17
72128;DHT22;60000;51.030;7.024;2022-11-15T09:26:40;12.95;77.60
72128;DHT22;60000;51.030;7.024;2022-11-15T09:29:05;13.04;76.61
72128;DHT22;60000;51.030;7.024;2022-11-15T09:31:31;13.15;75.82
72128;DHT22;60000;51.030;7.024;2022-11-15T09:33:56;13.24;75.59
72128;DHT22;60000;51.030;7.024;2022-11-15T09:36:21;13.29;74.97
72128;DHT22;60000;51.030;7.024;2022-11-15T09:38:47;13.31;74.47
72128;DHT22;60000;51.030;7.024;2022-11-15T09:48:53;13.70;73.71
72128;DHT22;60000;51.030;7.024;2022-11-15T09:51:32;13.73;72.72
72128;DHT22;60000;51.030;7.024;2022-11-15T09:54:05;13.80;72.00
72128;DHT22;60000;51.030;7.024;2022-11-15T09:56:36;13.86;72.05
72128;DHT22;60000;51.030;7.024;2022-11-15T09:59:23;13.90;71.17
72128;DHT22;60000;51.030;7.024;2022-11-15T10:05:00;13.86;68.49
72128;DHT22;60000;51.030;7.024;2022-11-15T10:07:46;13.77;68.38
72128;DHT22;60000;51.030;7.024;2022-11-15T10:10:22;13.77;69.56
72128;DHT22;60000;51.030;7.024;2022-11-15T10:12:50;13.79;69.40
72128;DHT22;60000;51.030;7.024;2022-11-15T10:15:18;13.84;68.72
72128;DHT22;60000;51.030;7.024;2022-11-15T10:20:25;13.96;67.66
72128;DHT22;60000;51.030;7.024;2022-11-15T10:22:54;14.06;68.33
72128;DHT22;60000;51.030;7.024;2022-11-15T10:25:26;14.12;67.21
72128;DHT22;60000;51.030;7.024;2022-11-15T10:30:56;14.17;65.31
72128;DHT22;60000;51.030;7.024;2022-11-15T10:33:31;14.23;65.35
72128;DHT22;60000;51.030;7.024;2022-11-15T10:41:19;14.54;64.81
72128;DHT22;60000;51.030;7.024;2022-11-15T10:44:42;14.62;63.61
72128;DHT22;60000;51.030;7.024;2022-11-15T10:47:05;14.64;63.18
72128;DHT22;60000;51.030;7.024;2022-11-15T10:49:32;14.58;62.27
72128;DHT22;60000;51.030;7.024;2022-11-15T10:54:53;14.46;59.40
72128;DHT22;60000;51.030;7.024;2022-11-15T10:57:24;14.44;58.43
72128;DHT22;60000;51.030;7.024;2022-11-15T11:00:27;14.33;56.79
72128;DHT22;60000;51.030;7.024;2022-11-15T11:05:33;14.41;55.88
72128;DHT22;60000;51.030;7.024;2022-11-15T11:08:02;14.42;54.89
72128;DHT22;60000;51.030;7.024;2022-11-15T11:10:28;14.46;55.51
72128;DHT22;60000;51.030;7.024;2022-11-15T11:12:53;14.49;55.12
72128;DHT22;60000;51.030;7.024;2022-11-15T11:15:19;14.52;54.81
72128;DHT22;60000;51.030;7.024;2022-11-15T11:26:01;14.55;54.24
72128;DHT22;60000;51.030;7.024;2022-11-15T11:28:42;14.51;54.22
72128;DHT22;60000;51.030;7.024;2022-11-15T11:34:08;14.51;54.15
72128;DHT22;60000;51.030;7.024;2022-11-15T11:39:32;14.42;54.85
72128;DHT22;60000;51.030;7.024;2022-11-15T11:42:10;14.33;55.23
72128;DHT22;60000;51.030;7.024;2022-11-15T11:47:32;14.24;55.13
72128;DHT22;60000;51.030;7.024;2022-11-15T11:50:11;14.16;55.91
72128;DHT22;60000;51.030;7.024;2022-11-15T11:52:43;14.12;56.13
72128;DHT22;60000;51.030;7.024;2022-11-15T11:55:33;14.24;56.70
72128;DHT22;60000;51.030;7.024;2022-11-15T11:58:16;14.28;56.98
72128;DHT22;60000;51.030;7.024;2022-11-15T12:00:49;14.34;56.44
72128;DHT22;60000;51.030;7.024;2022-11-15T12:03:29;14.37;55.90
72128;DHT22;60000;51.030;7.024;2022-11-15T12:05:58;14.42;56.04
72128;DHT22;60000;51.030;7.024;2022-11-15T12:08:33;14.46;55.91
72128;DHT22;60000;51.030;7.024;2022-11-15T12:11:28;14.54;56.37
72128;DHT22;60000;51.030;7.024;2022-11-15T12:13:59;14.57;56.97
72128;DHT22;60000;51.030;7.024;2022-11-15T12:16:28;14.62;56.80
72128;DHT22;60000;51.030;7.024;2022-11-15T12:18:56;14.65;57.20
72128;DHT22;60000;51.030;7.024;2022-11-15T12:24:38;14.69;57.24
72128;DHT22;60000;51.030;7.024;2022-11-15T12:27:21;14.68;56.93
72128;DHT22;60000;51.030;7.024;2022-11-15T12:30:02;14.67;57.28
72128;DHT22;60000;51.030;7.024;2022-11-15T12:32:31;14.69;57.58
72128;DHT22;60000;51.030;7.024;2022-11-15T12:35:00;14.67;57.54
72128;DHT22;60000;51.030;7.024;2022-11-15T12:45:37;14.67;56.87
72128;DHT22;60000;51.030;7.024;2022-11-15T12:58:57;14.71;57.66
72128;DHT22;60000;51.030;7.024;2022-11-15T13:04:13;14.60;59.17
72128;DHT22;60000;51.030;7.024;2022-11-15T13:17:39;14.46;61.83
72128;DHT22;60000;51.030;7.024;2022-11-15T13:31:02;14.37;63.56
72128;DHT22;60000;51.030;7.024;2022-11-15T13:33:34;14.35;63.57
72128;DHT22;60000;51.030;7.024;2022-11-15T13:36:06;14.30;63.96
72128;DHT22;60000;51.030;7.024;2022-11-15T13:38:37;14.28;63.84
72128;DHT22;60000;51.030;7.024;2022-11-15T13:41:23;14.31;64.24
72128;DHT22;60000;51.030;7.024;2022-11-15T13:43:51;14.28;64.44
72128;DHT22;60000;51.030;7.024;2022-11-15T13:46:29;14.27;64.72
72128;DHT22;60000;51.030;7.024;2022-11-15T13:49:05;14.23;64.83
72128;DHT22;60000;51.030;7.024;2022-11-15T13:51:37;14.23;64.74
72128;DHT22;60000;51.030;7.024;2022-11-15T13:56:32;14.31;64.51
72128;DHT22;60000;51.030;7.024;2022-11-15T13:58:59;14.34;64.60
72128;DHT22;60000;51.030;7.024;2022-11-15T14:01:28;14.35;64.30
72128;DHT22;60000;51.030;7.024;2022-11-15T14:03:56;14.31;64.61
72128;DHT22;60000;51.030;7.024;2022-11-15T14:06:25;14.31;64.61
72128;DHT22;60000;51.030;7.024;2022-11-15T14:09:24;14.27;64.74
72128;DHT22;60000;51.030;7.024;2022-11-15T14:11:53;14.27;64.76
72128;DHT22;60000;51.030;7.024;2022-11-15T14:14:24;14.30;64.77
72128;DHT22;60000;51.030;7.024;2022-11-15T14:16:58;14.28;64.96
72128;DHT22;60000;51.030;7.024;2022-11-15T14:24:41;14.21;65.40
72128;DHT22;60000;51.030;7.024;2022-11-15T14:29:42;14.17;65.64
72128;DHT22;60000;51.030;7.024;2022-11-15T14:32:43;14.14;65.75
72128;DHT22;60000;51.030;7.024;2022-11-15T14:35:14;14.12;66.07
72128;DHT22;60000;51.030;7.024;2022-11-15T14:37:40;14.10;66.28
72128;DHT22;60000;51.030;7.024;2022-11-15T14:40:06;14.09;66.26
72128;DHT22;60000;51.030;7.024;2022-11-15T14:42:32;14.03;66.62
72128;DHT22;60000;51.030;7.024;2022-11-15T14:44:57;14.04;66.66
72128;DHT22;60000;51.030;7.024;2022-11-15T14:47:23;14.04;66.89
72128;DHT22;60000;51.030;7.024;2022-11-15T14:49:48;14.04;66.79
72128;DHT22;60000;51.030;7.024;2022-11-15T14:54:50;14.06;66.87
72128;DHT22;60000;51.030;7.024;2022-11-15T14:57:16;14.00;67.01
72128;DHT22;60000;51.030;7.024;2022-11-15T14:59:41;14.02;66.98
72128;DHT22;60000;51.030;7.024;2022-11-15T15:02:16;14.02;67.04
72128;DHT22;60000;51.030;7.024;2022-11-15T15:04:43;13.99;67.06
72128;DHT22;60000;51.030;7.024;2022-11-15T15:07:08;14.04;66.74
72128;DHT22;60000;51.030;7.024;2022-11-15T15:09:33;13.94;67.10
72128;DHT22;60000;51.030;7.024;2022-11-15T15:11:58;13.96;67.18
72128;DHT22;60000;51.030;7.024;2022-11-15T15:14:24;13.94;67.06
72128;DHT22;60000;51.030;7.024;2022-11-15T15:16:49;13.93;67.29
72128;DHT22;60000;51.030;7.024;2022-11-15T15:19:14;13.89;67.29
72128;DHT22;60000;51.030;7.024;2022-11-15T15:21:40;13.89;67.35
72128;DHT22;60000;51.030;7.024;2022-11-15T15:24:05;13.80;67.61
72128;DHT22;60000;51.030;7.024;2022-11-15T15:26:30;13.80;67.87
72128;DHT22;60000;51.030;7.024;2022-11-15T15:28:58;13.76;67.90
72128;DHT22;60000;51.030;7.024;2022-11-15T15:31:24;13.75;68.19
72128;DHT22;60000;51.030;7.024;2022-11-15T15:33:49;13.72;68.10
72128;DHT22;60000;51.030;7.024;2022-11-15T15:36:18;13.72;68.28
72128;DHT22;60000;51.030;7.024;2022-11-15T15:38:44;13.72;68.21
72128;DHT22;60000;51.030;7.024;2022-11-15T15:41:12;13.69;68.38
72128;DHT22;60000;51.030;7.024;2022-11-15T15:43:37;13.63;68.59
72128;DHT22;60000;51.030;7.024;2022-11-15T15:46:04;13.61;68.67
72128;DHT22;60000;51.030;7.024;2022-11-15T15:48:32;13.59;68.86
72128;DHT22;60000;51.030;7.024;2022-11-15T15:50:58;13.56;68.99
72128;DHT22;60000;51.030;7.024;2022-11-15T15:53:24;13.58;68.98
72128;DHT22;60000;51.030;7.024;2022-11-15T15:55:49;13.59;69.12
72128;DHT22;60000;51.030;7.024;2022-11-15T15:58:14;13.58;69.05
72128;DHT22;60000;51.030;7.024;2022-11-15T16:00:40;13.55;69.14
72128;DHT22;60000;51.030;7.024;2022-11-15T16:03:05;13.53;69.32
72128;DHT22;60000;51.030;7.024;2022-11-15T16:05:31;13.52;69.33
72128;DHT22;60000;51.030;7.024;2022-11-15T16:07:56;13.49;69.41
72128;DHT22;60000;51.030;7.024;2022-11-15T16:10:27;13.52;69.54
72128;DHT22;60000;51.030;7.024;2022-11-15T16:12:54;13.45;69.68
72128;DHT22;60000;51.030;7.024;2022-11-15T16:15:21;13.45;69.80
72128;DHT22;60000;51.030;7.024;2022-11-15T16:17:57;13.41;70.09
72128;DHT22;60000;51.030;7.024;2022-11-15T16:20:44;13.38;70.32
72128;DHT22;60000;51.030;7.024;2022-11-15T16:23:12;13.36;70.51
72128;DHT22;60000;51.030;7.024;2022-11-15T16:25:47;13.41;70.53
72128;DHT22;60000;51.030;7.024;2022-11-15T16:28:26;13.41;70.44
72128;DHT22;60000;51.030;7.024;2022-11-15T16:31:07;13.41;70.59
72128;DHT22;60000;51.030;7.024;2022-11-15T16:33:33;13.41;70.56
72128;DHT22;60000;51.030;7.024;2022-11-15T16:35:58;13.42;70.58
72128;DHT22;60000;51.030;7.024;2022-11-15T16:38:23;13.46;70.35
72128;DHT22;60000;51.030;7.024;2022-11-15T16:40:49;13.46;70.45
72128;DHT22;60000;51.030;7.024;2022-11-15T16:43:14;13.51;70.37
72128;DHT22;60000;51.030;7.024;2022-11-15T16:45:39;13.49;70.43
72128;DHT22;60000;51.030;7.024;2022-11-15T16:48:05;13.52;70.38
72128;DHT22;60000;51.030;7.024;2022-11-15T16:50:33;13.56;70.03
72128;DHT22;60000;51.030;7.024;2022-11-15T16:53:05;13.61;70.10
72128;DHT22;60000;51.030;7.024;2022-11-15T16:55:30;13.58;70.02
72128;DHT22;60000;51.030;7.024;2022-11-15T16:57:56;13.62;69.93
72128;DHT22;60000;51.030;7.024;2022-11-15T17:00:23;13.59;69.96
72128;DHT22;60000;51.030;7.024;2022-11-15T17:02:49;13.65;69.83
72128;DHT22;60000;51.030;7.024;2022-11-15T17:05:18;13.69;69.65
72128;DHT22;60000;51.030;7.024;2022-11-15T17:07:49;13.67;69.66
72128;DHT22;60000;51.030;7.024;2022-11-15T17:10:16;13.67;69.49
72128;DHT22;60000;51.030;7.024;2022-11-15T17:12:42;13.67;69.54
72128;DHT22;60000;51.030;7.024;2022-11-15T17:15:10;13.67;69.56
72128;DHT22;60000;51.030;7.024;2022-11-15T17:17:36;13.72;69.63
72128;DHT22;60000;51.030;7.024;2022-11-15T17:20:01;13.72;69.57
72128;DHT22;60000;51.030;7.024;2022-11-15T17:22:29;13.75;69.38
72128;DHT22;60000;51.030;7.024;2022-11-15T17:24:54;13.72;69.40
72128;DHT22;60000;51.030;7.024;2022-11-15T17:27:20;13.69;69.51
72128;DHT22;60000;51.030;7.024;2022-11-15T17:29:45;13.67;69.54
72128;DHT22;60000;51.030;7.024;2022-11-15T17:32:11;13.66;69.62
72128;DHT22;60000;51.030;7.024;2022-11-15T17:34:36;13.63;69.75
72128;DHT22;60000;51.030;7.024;2022-11-15T17:37:01;13.66;69.96
72128;DHT22;60000;51.030;7.024;2022-11-15T17:39:27;13.65;69.93
72128;DHT22;60000;51.030;7.024;2022-11-15T17:41:52;13.67;69.94
72128;DHT22;60000;51.030;7.024;2022-11-15T17:44:17;13.67;70.19
72128;DHT22;60000;51.030;7.024;2022-11-15T17:46:43;13.69;70.28
72128;DHT22;60000;51.030;7.024;2022-11-15T17:49:08;13.66;70.48